createdAt,value
2023-02-17T00:02:09.956Z,90.68
2023-02-17T00:04:43.515Z,90.62
2023-02-17T00:07:10.276Z,90.59
2023-02-17T00:09:43.464Z,90.60
2023-02-17T00:12:10.607Z,90.48
2023-02-17T00:14:49.948Z,90.58
2023-02-17T00:17:16.737Z,90.81
2023-02-17T00:19:52.382Z,90.50
2023-02-17T00:22:21.637Z,90.82
2023-02-17T00:25:25.467Z,90.81
2023-02-17T00:27:52.203Z,90.59
2023-02-17T00:30:26.807Z,91.04
2023-02-17T00:32:57.034Z,91.06
2023-02-17T00:35:32.583Z,91.09
2023-02-17T00:38:05.462Z,91.15
2023-02-17T00:40:32.331Z,91.39
2023-02-17T00:43:05.597Z,91.29
2023-02-17T00:45:35.321Z,91.14
2023-02-17T00:48:08.716Z,91.42
2023-02-17T00:50:38.772Z,91.39
2023-02-17T00:53:08.782Z,91.55
2023-02-17T00:55:42.438Z,91.52
2023-02-17T00:58:16.479Z,91.67
2023-02-17T01:00:53.415Z,91.50
2023-02-17T01:03:41.478Z,91.58
2023-02-17T01:06:36.912Z,91.48
2023-02-17T01:09:21.639Z,91.44
2023-02-17T01:11:48.495Z,91.67
2023-02-17T01:14:21.514Z,91.55
2023-02-17T01:16:49.654Z,91.50
2023-02-17T01:19:26.400Z,91.04
2023-02-17T01:21:53.098Z,90.95
2023-02-17T01:24:26.563Z,90.89
2023-02-17T01:26:53.524Z,90.95
2023-02-17T01:29:20.450Z,90.73
2023-02-17T01:31:53.535Z,90.96
2023-02-17T01:34:28.571Z,90.69
2023-02-17T01:37:01.529Z,90.73
2023-02-17T01:39:28.267Z,90.28
2023-02-17T01:42:01.492Z,90.33
2023-02-17T01:44:33.014Z,90.26
2023-02-17T01:47:06.546Z,90.27
2023-02-17T01:49:46.422Z,90.40
2023-02-17T01:52:23.098Z,90.22
2023-02-17T01:55:04.856Z,90.01
2023-02-17T01:57:46.503Z,90.11
2023-02-17T02:00:15.033Z,89.91
2023-02-17T02:03:18.176Z,90.23
2023-02-17T02:06:25.120Z,90.26
2023-02-17T02:09:28.517Z,90.17
2023-02-17T02:12:06.664Z,90.24
2023-02-17T02:14:39.652Z,89.93
2023-02-17T02:17:15.933Z,89.64
2023-02-17T02:20:12.478Z,89.85
2023-02-17T02:22:51.630Z,89.89
2023-02-17T02:25:48.554Z,89.57
2023-02-17T02:28:42.825Z,89.60
2023-02-17T02:31:43.710Z,89.48
2023-02-17T02:34:17.308Z,89.54
2023-02-17T02:36:57.529Z,89.58
2023-02-17T02:39:36.650Z,89.42
2023-02-17T02:42:08.305Z,89.50
2023-02-17T02:44:44.252Z,89.24
2023-02-17T02:47:50.536Z,89.49
2023-02-17T02:50:47.588Z,89.21
2023-02-17T02:53:27.532Z,89.36
2023-02-17T02:56:33.296Z,89.30
2023-02-17T02:59:36.580Z,89.21
2023-02-17T03:02:35.496Z,89.32
2023-02-17T03:05:50.575Z,88.95
2023-02-17T03:08:56.632Z,89.00
2023-02-17T03:11:38.565Z,88.81
2023-02-17T03:14:16.001Z,88.89
2023-02-17T03:16:49.661Z,89.13
2023-02-17T03:19:18.402Z,88.58
2023-02-17T03:21:58.642Z,88.86
2023-02-17T03:24:38.029Z,88.38
2023-02-17T03:27:14.681Z,88.35
2023-02-17T03:29:50.652Z,88.32
2023-02-17T03:32:50.361Z,87.80
2023-02-17T03:35:32.464Z,87.99
2023-02-17T03:38:07.995Z,87.78
2023-02-17T03:40:41.506Z,87.93
2023-02-17T03:43:08.518Z,87.79
2023-02-17T03:45:44.577Z,87.75
2023-02-17T03:48:11.601Z,87.53
2023-02-17T03:50:51.629Z,87.79
2023-02-17T03:53:21.404Z,87.63
2023-02-17T03:56:11.715Z,87.71
2023-02-17T03:58:45.560Z,87.49
2023-02-17T04:01:13.886Z,87.27
2023-02-17T04:03:47.633Z,86.84
2023-02-17T04:06:22.441Z,87.06
2023-02-17T04:08:55.781Z,87.11
2023-02-17T04:11:45.774Z,87.06
2023-02-17T04:14:19.464Z,87.01
2023-02-17T04:16:46.287Z,87.19
2023-02-17T04:19:21.203Z,87.47
2023-02-17T04:21:54.620Z,87.23
2023-02-17T04:24:24.840Z,87.05
2023-02-17T04:27:10.522Z,86.79
2023-02-17T04:29:37.535Z,86.62
2023-02-17T04:32:11.639Z,86.22
2023-02-17T04:34:50.087Z,86.09
2023-02-17T04:37:24.783Z,86.37
2023-02-17T04:39:57.598Z,86.00
2023-02-17T04:42:31.602Z,85.94
2023-02-17T04:45:07.566Z,85.95
2023-02-17T04:47:37.605Z,85.64
2023-02-17T04:50:12.640Z,85.52
2023-02-17T04:52:42.118Z,85.68
2023-02-17T04:55:15.768Z,85.41
2023-02-17T04:57:45.026Z,85.22
2023-02-17T05:00:12.280Z,85.31
2023-02-17T05:02:45.685Z,85.11
2023-02-17T05:05:31.729Z,85.20
2023-02-17T05:08:08.733Z,85.12
2023-02-17T05:10:41.522Z,85.17
2023-02-17T05:13:08.505Z,85.07
2023-02-17T05:15:44.646Z,85.16
2023-02-17T05:18:18.523Z,85.11
2023-02-17T05:20:51.652Z,85.02
2023-02-17T05:23:18.660Z,85.16
2023-02-17T05:25:57.858Z,85.28
2023-02-17T05:28:30.815Z,85.32
2023-02-17T05:31:14.695Z,85.18
2023-02-17T05:33:50.494Z,85.40
2023-02-17T05:39:10.560Z,85.29
2023-02-17T05:41:46.870Z,85.72
2023-02-17T05:44:19.618Z,85.79
2023-02-17T05:46:48.919Z,85.77
2023-02-17T05:49:24.943Z,85.73
2023-02-17T05:51:51.836Z,86.38
2023-02-17T05:54:32.586Z,86.67
2023-02-17T05:56:59.556Z,87.57
2023-02-17T05:59:33.592Z,87.84
2023-02-17T06:02:06.125Z,88.27
2023-02-17T06:04:39.685Z,88.51
2023-02-17T06:07:12.717Z,88.92
2023-02-17T06:09:47.235Z,89.44
2023-02-17T06:12:14.022Z,89.56
2023-02-17T06:14:45.726Z,89.89
2023-02-17T06:17:18.604Z,89.74
2023-02-17T06:19:51.689Z,90.15
2023-02-17T06:22:24.675Z,90.25
2023-02-17T06:24:53.562Z,90.55
2023-02-17T06:27:26.672Z,90.43
2023-02-17T06:29:53.407Z,90.64
2023-02-17T06:32:26.601Z,90.47
2023-02-17T06:34:53.389Z,90.71
2023-02-17T06:37:26.719Z,90.52
2023-02-17T06:39:53.555Z,90.78
2023-02-17T06:42:26.649Z,90.75
2023-02-17T06:44:56.006Z,90.70
2023-02-17T06:47:29.670Z,90.30
2023-02-17T06:50:06.422Z,90.50
2023-02-17T06:52:33.165Z,90.62
2023-02-17T06:55:06.794Z,90.46
2023-02-17T06:57:33.626Z,90.06
2023-02-17T07:00:00.782Z,90.11
2023-02-17T07:05:40.633Z,89.99
2023-02-17T07:08:07.586Z,89.93
2023-02-17T07:10:41.584Z,89.94
2023-02-17T07:13:08.863Z,89.79
2023-02-17T07:15:42.653Z,89.82
2023-02-17T07:18:09.484Z,89.57
2023-02-17T07:20:43.719Z,89.93
2023-02-17T07:23:10.693Z,89.80
2023-02-17T07:26:11.756Z,89.47
2023-02-17T07:28:40.016Z,89.37
2023-02-17T07:31:40.532Z,89.53
2023-02-17T07:34:14.662Z,89.55
2023-02-17T07:36:55.068Z,89.47
2023-02-17T07:39:31.676Z,89.33
2023-02-17T07:42:01.213Z,89.43
2023-02-17T07:44:34.860Z,89.23
2023-02-17T07:47:01.516Z,89.39
2023-02-17T07:49:55.663Z,89.38
2023-02-17T07:52:37.092Z,89.47
2023-02-17T07:55:13.428Z,89.33
2023-02-17T07:57:40.355Z,89.49
2023-02-17T08:00:14.813Z,89.25
2023-02-17T08:02:41.524Z,89.42
2023-02-17T08:05:21.064Z,89.37
2023-02-17T08:08:14.117Z,89.23
2023-02-17T08:11:11.511Z,89.46
2023-02-17T08:13:38.517Z,89.49
2023-02-17T08:17:09.322Z,89.67
2023-02-17T08:19:47.434Z,89.36
2023-02-17T08:22:31.875Z,89.24
2023-02-17T08:25:01.136Z,89.24
2023-02-17T08:27:34.725Z,89.25
2023-02-17T08:30:01.626Z,88.91
2023-02-17T08:32:37.657Z,89.14
2023-02-17T08:35:14.237Z,88.89
2023-02-17T08:37:47.647Z,88.49
2023-02-17T08:40:27.084Z,88.43
2023-02-17T08:43:02.990Z,88.29
2023-02-17T08:45:36.147Z,88.26
2023-02-17T08:48:12.185Z,88.04
2023-02-17T08:50:39.021Z,87.90
2023-02-17T08:53:12.775Z,87.88
2023-02-17T08:55:49.265Z,87.83
2023-02-17T08:58:25.350Z,87.66
2023-02-17T09:00:52.332Z,87.43
2023-02-17T09:08:46.076Z,87.08
2023-02-17T09:11:55.872Z,86.91
2023-02-17T09:14:24.371Z,86.42
2023-02-17T09:17:03.836Z,86.43
2023-02-17T09:19:30.588Z,85.95
2023-02-17T09:22:03.715Z,85.90
2023-02-17T09:24:49.801Z,86.05
2023-02-17T09:27:24.759Z,85.70
2023-02-17T09:29:51.518Z,85.41
2023-02-17T09:32:36.142Z,85.28
2023-02-17T09:35:12.447Z,85.11
2023-02-17T09:37:48.591Z,84.78
2023-02-17T09:40:35.389Z,84.59
2023-02-17T09:43:10.004Z,84.14
2023-02-17T09:45:37.069Z,83.95
2023-02-17T09:48:38.555Z,83.64
2023-02-17T09:51:19.565Z,83.78
2023-02-17T09:54:11.014Z,83.97
2023-02-17T09:57:15.634Z,83.41
2023-02-17T09:59:53.773Z,83.42
2023-02-17T10:06:09.060Z,83.01
2023-02-17T10:09:12.945Z,82.80
2023-02-17T10:11:49.728Z,82.51
2023-02-17T10:14:48.775Z,82.49
2023-02-17T10:17:35.117Z,82.41
2023-02-17T10:20:38.140Z,82.17
2023-02-17T10:23:10.888Z,82.01
2023-02-17T10:25:58.785Z,82.04
2023-02-17T10:28:34.899Z,81.68
2023-02-17T10:31:38.842Z,81.53
2023-02-17T10:34:24.802Z,81.47
2023-02-17T10:37:31.808Z,81.34
2023-02-17T10:39:58.804Z,81.11
2023-02-17T10:42:35.782Z,81.07
2023-02-17T10:45:38.806Z,81.13
2023-02-17T10:48:28.775Z,80.76
2023-02-17T10:51:17.625Z,80.93
2023-02-17T10:53:55.696Z,80.84
2023-02-17T10:56:46.968Z,81.13
2023-02-17T10:59:32.850Z,80.75
2023-02-17T11:03:12.519Z,80.91
2023-02-17T11:05:49.790Z,80.85
2023-02-17T11:08:49.771Z,80.77
2023-02-17T11:11:31.083Z,81.01
2023-02-17T11:14:13.778Z,80.66
2023-02-17T11:16:58.748Z,80.86
2023-02-17T11:19:30.111Z,80.84
2023-02-17T11:22:06.873Z,80.91
2023-02-17T11:24:41.738Z,80.91
2023-02-17T11:27:18.785Z,81.24
2023-02-17T11:29:45.447Z,81.28
2023-02-17T11:32:19.772Z,81.46
2023-02-17T11:34:57.726Z,81.73
2023-02-17T11:37:35.781Z,81.80
2023-02-17T11:40:26.258Z,81.81
2023-02-17T11:43:06.232Z,81.82
2023-02-17T11:46:01.100Z,81.90
2023-02-17T11:49:12.852Z,81.87
2023-02-17T11:52:15.754Z,81.82
2023-02-17T11:54:51.558Z,81.79
2023-02-17T11:57:51.749Z,82.06
2023-02-17T12:00:36.972Z,82.05
2023-02-17T12:04:07.853Z,82.24
2023-02-17T12:07:24.206Z,82.28
2023-02-17T12:10:03.789Z,82.29
2023-02-17T12:12:50.401Z,82.39
2023-02-17T12:15:38.855Z,82.46
2023-02-17T12:18:21.186Z,82.54
2023-02-17T12:21:31.858Z,82.46
2023-02-17T12:24:11.829Z,82.74
2023-02-17T12:27:10.762Z,82.60
2023-02-17T12:30:01.251Z,82.59
2023-02-17T12:32:54.891Z,82.95
2023-02-17T12:35:43.827Z,82.73
2023-02-17T12:38:27.092Z,82.83
2023-02-17T12:41:54.769Z,82.88
2023-02-17T12:44:27.971Z,83.34
2023-02-17T12:47:06.838Z,84.48
2023-02-17T12:50:07.341Z,85.22
2023-02-17T12:52:49.173Z,85.85
2023-02-17T12:55:25.522Z,86.29
2023-02-17T12:58:18.910Z,86.61
2023-02-17T13:01:20.925Z,86.95
2023-02-17T13:03:55.062Z,86.81
2023-02-17T13:06:48.688Z,86.83
2023-02-17T13:09:31.945Z,86.82
2023-02-17T13:12:30.193Z,86.74
2023-02-17T13:15:08.885Z,86.60
2023-02-17T13:17:59.142Z,86.55
2023-02-17T13:20:38.843Z,86.32
2023-02-17T13:23:18.967Z,86.25
2023-02-17T13:25:52.859Z,85.88
2023-02-17T13:28:40.154Z,85.89
2023-02-17T13:31:24.195Z,85.57
2023-02-17T13:34:05.902Z,85.66
2023-02-17T13:36:38.868Z,85.62
2023-02-17T13:39:35.384Z,85.06
2023-02-17T13:42:55.121Z,84.96
2023-02-17T13:46:05.211Z,85.10
2023-02-17T13:48:34.519Z,84.65
2023-02-17T13:51:11.102Z,84.69
2023-02-17T13:53:41.232Z,84.70
2023-02-17T13:56:30.871Z,84.59
2023-02-17T13:59:18.650Z,84.36
2023-02-17T14:02:00.884Z,84.45
2023-02-17T14:04:32.000Z,83.98
2023-02-17T14:07:10.987Z,83.97
2023-02-17T14:09:41.830Z,83.79
2023-02-17T14:12:27.956Z,83.64
2023-02-17T14:14:55.115Z,83.60
2023-02-17T14:17:39.990Z,83.75
2023-02-17T14:20:14.024Z,83.53
2023-02-17T14:22:59.179Z,83.73
2023-02-17T14:25:41.933Z,83.74
2023-02-17T14:28:20.590Z,83.77
2023-02-17T14:30:54.931Z,83.68
2023-02-17T14:33:30.992Z,83.74
2023-02-17T14:36:08.279Z,83.84
2023-02-17T14:38:49.000Z,83.36
2023-02-17T14:41:16.029Z,83.44
2023-02-17T14:46:36.972Z,83.11
2023-02-17T14:49:04.288Z,83.16
2023-02-17T14:51:42.951Z,83.28
2023-02-17T14:54:18.524Z,83.44
2023-02-17T14:56:58.929Z,83.42
2023-02-17T14:59:32.893Z,83.09
2023-02-17T15:02:14.030Z,83.27
2023-02-17T15:04:48.070Z,83.28
2023-02-17T15:07:18.351Z,82.96
2023-02-17T15:09:55.968Z,83.01
2023-02-17T15:12:26.144Z,82.91
2023-02-17T15:15:05.005Z,82.79
2023-02-17T15:17:35.218Z,82.76
2023-02-17T15:20:09.946Z,82.62
2023-02-17T15:22:44.524Z,82.24
2023-02-17T15:25:31.089Z,82.42
2023-02-17T15:28:06.976Z,82.43
2023-02-17T15:30:36.284Z,82.37
2023-02-17T15:33:10.032Z,82.44
2023-02-17T15:35:37.212Z,82.22
2023-02-17T15:38:14.759Z,82.10
2023-02-17T15:40:49.012Z,81.75
2023-02-17T15:43:28.922Z,81.56
2023-02-17T15:45:58.625Z,81.71
2023-02-17T15:48:39.867Z,81.53
2023-02-17T15:51:12.894Z,81.33
2023-02-17T15:53:39.908Z,81.63
2023-02-17T15:56:41.043Z,81.26
2023-02-17T15:59:18.995Z,81.23
2023-02-17T16:01:52.956Z,81.01
2023-02-17T16:04:26.619Z,81.31
2023-02-17T16:07:00.011Z,81.25
2023-02-17T16:09:34.225Z,81.48
2023-02-17T16:12:01.830Z,81.40
2023-02-17T16:14:47.045Z,81.46
2023-02-17T16:17:16.391Z,81.31
2023-02-17T16:19:50.974Z,81.30
2023-02-17T16:22:18.055Z,81.29
2023-02-17T16:24:51.945Z,81.38
2023-02-17T16:27:19.250Z,81.28
2023-02-17T16:29:52.993Z,81.36
2023-02-17T16:32:27.096Z,81.19
2023-02-17T16:35:00.981Z,81.37
2023-02-17T16:37:28.181Z,81.33
2023-02-17T16:40:02.171Z,81.27
2023-02-17T16:42:29.134Z,81.15
2023-02-17T16:47:40.957Z,81.34
2023-02-17T16:50:09.649Z,81.33
2023-02-17T16:52:45.422Z,81.28
2023-02-17T16:55:25.938Z,81.61
2023-02-17T16:58:02.601Z,81.59
2023-02-17T17:00:40.029Z,82.07
2023-02-17T17:03:32.036Z,83.08
2023-02-17T17:06:06.594Z,83.91
2023-02-17T17:08:33.898Z,84.88
2023-02-17T17:11:07.951Z,85.33
2023-02-17T17:13:35.226Z,85.53
2023-02-17T17:16:09.990Z,85.90
2023-02-17T17:18:37.143Z,86.15
2023-02-17T17:21:11.047Z,86.61
2023-02-17T17:23:45.955Z,86.42
2023-02-17T17:26:27.611Z,86.95
2023-02-17T17:29:04.761Z,86.36
2023-02-17T17:31:38.580Z,86.35
2023-02-17T17:34:12.945Z,86.16
2023-02-17T17:36:44.051Z,85.69
2023-02-17T17:39:27.039Z,85.25
2023-02-17T17:41:54.092Z,84.89
2023-02-17T17:44:28.083Z,85.26
2023-02-17T17:46:55.243Z,85.07
2023-02-17T17:49:25.144Z,85.07
2023-02-17T17:51:59.251Z,84.77
2023-02-17T17:54:33.012Z,84.61
2023-02-17T17:57:06.984Z,84.31
2023-02-17T17:59:34.233Z,83.80
2023-02-17T18:02:07.897Z,83.38
2023-02-17T18:04:37.526Z,82.52
2023-02-17T18:07:11.077Z,81.17
2023-02-17T18:09:39.391Z,80.42
2023-02-17T18:12:20.124Z,79.77
2023-02-17T18:14:52.285Z,78.26
2023-02-17T18:17:27.042Z,76.89
2023-02-17T18:19:55.391Z,76.84
2023-02-17T18:25:06.004Z,78.07
2023-02-17T18:27:51.064Z,78.64
2023-02-17T18:30:20.687Z,79.10
2023-02-17T18:32:48.049Z,79.13
2023-02-17T18:35:22.177Z,79.02
2023-02-17T18:37:49.541Z,78.99
2023-02-17T18:40:25.014Z,79.33
2023-02-17T18:42:52.274Z,79.83
2023-02-17T18:45:27.067Z,80.59
2023-02-17T18:47:54.312Z,80.72
2023-02-17T18:50:21.551Z,80.60
2023-02-17T18:52:55.047Z,79.82
2023-02-17T18:55:29.066Z,78.75
2023-02-17T18:57:59.430Z,78.00
2023-02-17T19:00:33.132Z,77.52
2023-02-17T19:03:07.028Z,74.67
2023-02-17T19:08:41.003Z,75.75
2023-02-17T19:11:15.058Z,75.34
2023-02-17T19:13:49.003Z,76.45
2023-02-17T19:16:21.287Z,77.04
2023-02-17T19:18:55.056Z,77.43
2023-02-17T19:21:23.302Z,77.86
2023-02-17T19:23:50.804Z,78.21
2023-02-17T19:26:25.061Z,78.17
2023-02-17T19:28:59.079Z,76.76
2023-02-17T19:31:26.472Z,76.66
2023-02-17T19:34:00.128Z,76.86
2023-02-17T19:36:27.294Z,77.23
2023-02-17T19:39:03.074Z,77.58
2023-02-17T19:41:37.254Z,77.76
2023-02-17T19:44:12.028Z,77.40
2023-02-17T19:46:46.311Z,77.84
2023-02-17T19:49:13.713Z,78.02
2023-02-17T19:51:48.107Z,78.31
2023-02-17T19:54:15.482Z,78.53
2023-02-17T19:56:49.196Z,78.46
2023-02-17T19:59:16.906Z,78.57
2023-02-17T20:01:51.379Z,78.65
2023-02-17T20:04:27.476Z,78.69
2023-02-17T20:07:01.098Z,78.81
2023-02-17T20:09:35.131Z,78.92
2023-02-17T20:12:02.091Z,79.05
2023-02-17T20:14:40.049Z,79.09
2023-02-17T20:17:07.286Z,79.38
2023-02-17T20:19:45.036Z,79.27
2023-02-17T20:22:12.353Z,79.29
2023-02-17T20:24:47.005Z,79.68
2023-02-17T20:27:16.481Z,79.84
2023-02-17T20:29:52.348Z,79.77
2023-02-17T20:32:20.108Z,80.01
2023-02-17T20:34:54.499Z,80.00
2023-02-17T20:37:21.424Z,79.96
2023-02-17T20:39:56.167Z,80.25
2023-02-17T20:42:23.365Z,80.65
2023-02-17T20:44:58.037Z,81.18
2023-02-17T20:47:33.701Z,81.92
2023-02-17T20:50:00.909Z,82.31
2023-02-17T20:52:34.106Z,82.48
2023-02-17T20:55:01.282Z,82.92
2023-02-17T20:57:35.046Z,83.09
2023-02-17T21:00:05.566Z,83.42
2023-02-17T21:02:39.051Z,83.63
2023-02-17T21:05:12.925Z,83.48
2023-02-17T21:07:47.088Z,83.71
2023-02-17T21:10:20.465Z,84.07
2023-02-17T21:12:54.109Z,84.65
2023-02-17T21:15:28.036Z,84.67
2023-02-17T21:18:02.134Z,84.74
2023-02-17T21:20:29.323Z,84.84
2023-02-17T21:22:56.482Z,84.46
2023-02-17T21:25:30.085Z,84.45
2023-02-17T21:27:57.437Z,83.73
2023-02-17T21:30:33.170Z,83.53
2023-02-17T21:33:10.200Z,83.62
2023-02-17T21:35:44.223Z,83.75
2023-02-17T21:38:12.492Z,83.67
2023-02-17T21:40:48.285Z,83.52
2023-02-17T21:43:34.310Z,83.53
2023-02-17T21:46:08.620Z,83.88
2023-02-17T21:48:38.829Z,83.73
2023-02-17T21:51:15.268Z,84.13
2023-02-17T21:53:48.177Z,83.92
2023-02-17T21:56:22.116Z,83.75
2023-02-17T21:58:51.077Z,83.69
2023-02-17T22:01:28.158Z,83.41
2023-02-17T22:04:02.908Z,83.27
2023-02-17T22:06:39.150Z,83.36
2023-02-17T22:09:15.186Z,83.23
2023-02-17T22:11:50.162Z,83.18
2023-02-17T22:14:30.165Z,83.06
2023-02-17T22:16:57.756Z,82.91
2023-02-17T22:19:32.173Z,82.85
2023-02-17T22:22:06.182Z,83.04
2023-02-17T22:24:40.144Z,82.95
2023-02-17T22:27:07.412Z,82.99
2023-02-17T22:29:41.220Z,83.13
2023-02-17T22:32:08.501Z,83.16
2023-02-17T22:34:42.212Z,83.46
2023-02-17T22:37:09.237Z,83.58
2023-02-17T22:39:43.205Z,83.73
2023-02-17T22:42:10.231Z,84.00
2023-02-17T22:44:46.675Z,83.76
2023-02-17T22:47:14.728Z,84.05
2023-02-17T22:49:49.264Z,84.17
2023-02-17T22:52:16.564Z,83.97
2023-02-17T22:54:44.491Z,84.01
2023-02-17T22:57:18.756Z,84.01
2023-02-17T22:59:46.121Z,84.44
2023-02-17T23:02:20.292Z,84.54
2023-02-17T23:04:54.035Z,84.91
2023-02-17T23:07:27.236Z,84.38
2023-02-17T23:09:54.711Z,84.42
2023-02-17T23:12:21.892Z,84.69
2023-02-17T23:14:58.435Z,84.77
2023-02-17T23:17:25.576Z,85.05
2023-02-17T23:19:59.229Z,85.60
2023-02-17T23:22:36.401Z,85.72
2023-02-17T23:25:03.488Z,85.66
2023-02-17T23:27:40.173Z,86.05
2023-02-17T23:30:16.210Z,86.29
2023-02-17T23:32:43.403Z,86.51
2023-02-17T23:35:18.128Z,86.86
2023-02-17T23:37:45.467Z,86.54
2023-02-17T23:40:13.286Z,86.85
2023-02-17T23:42:47.213Z,86.75
2023-02-17T23:45:14.686Z,86.92
2023-02-17T23:47:51.572Z,87.23
2023-02-17T23:50:18.893Z,87.80
2023-02-17T23:52:55.848Z,88.00
2023-02-17T23:55:23.050Z,87.89
2023-02-17T23:57:57.177Z,87.77
